Time;durP1;ratioP1;P1;durP2;ratioP2;P2;SDS_P1;SDS_P2;PMS_P1;PMS_P2;Temp;Humidity;BMP_temperature;BMP_pressure;BME280_temperature;BME280_humidity;BME280_pressure;Samples;Min_cycle;Max_cycle;Signal;HPM_P1;HPM_P2
2022/02/21 00:00:54;;;;;;;4.78;1.10;;;10.60;92.90;;;;;;4974149;28;20183;-86
2022/02/21 04:49:08;;;;;;;2.45;0.50;;;4.70;99.90;;;;;;5333943;23;20082;-83
2022/02/21 04:51:39;;;;;;;2.05;0.55;;;4.50;99.90;;;;;;4988863;28;20102;-82
2022/02/21 04:54:06;;;;;;;1.85;0.77;;;4.50;99.90;;;;;;4986729;28;20491;-80
2022/02/21 04:56:47;;;;;;;1.95;0.50;;;4.50;99.90;;;;;;4983375;28;20047;-80
2022/02/21 04:59:15;;;;;;;3.08;0.60;;;4.50;99.90;;;;;;4983496;28;20125;-80
2022/02/21 05:01:42;;;;;;;3.28;0.60;;;4.60;99.90;;;;;;4981707;28;20138;-79
2022/02/21 05:04:11;;;;;;;3.55;0.55;;;4.60;99.90;;;;;;4981534;28;20050;-78
2022/02/21 05:06:38;;;;;;;3.38;0.80;;;4.50;99.90;;;;;;4980390;28;20126;-81
2022/02/21 05:09:08;;;;;;;3.80;0.60;;;4.40;99.90;;;;;;4983257;28;20081;-80
2022/02/21 05:11:35;;;;;;;2.22;0.57;;;4.50;99.90;;;;;;4984478;28;20081;-76
2022/02/21 05:14:03;;;;;;;1.73;0.50;;;4.50;99.90;;;;;;4981793;28;20129;-74
2022/02/21 05:16:30;;;;;;;4.07;0.68;;;4.60;99.90;;;;;;4979619;28;20133;-76
2022/02/21 05:19:02;;;;;;;2.13;0.63;;;4.60;99.90;;;;;;4980835;28;20134;-78
2022/02/21 05:21:31;;;;;;;3.10;0.52;;;4.60;99.90;;;;;;4982910;28;20051;-80
2022/02/21 05:24:00;;;;;;;3.20;0.60;;;4.50;99.90;;;;;;4980357;28;20109;-80
2022/02/21 05:26:35;;;;;;;1.92;0.60;;;4.60;99.90;;;;;;4982580;28;20134;-78
2022/02/21 05:29:03;;;;;;;2.50;0.85;;;4.50;99.90;;;;;;4982594;28;20047;-80
2022/02/21 05:31:32;;;;;;;3.08;0.60;;;4.40;99.90;;;;;;4981674;28;20110;-79
2022/02/21 05:33:59;;;;;;;3.13;0.80;;;4.50;99.90;;;;;;4982847;28;20475;-76
2022/02/21 05:36:26;;;;;;;2.15;0.82;;;4.40;99.90;;;;;;4981364;28;20142;-80
2022/02/21 05:38:55;;;;;;;2.97;0.70;;;4.40;99.90;;;;;;4980269;28;20078;-78
2022/02/21 05:41:22;;;;;;;3.90;0.50;;;4.50;99.90;;;;;;4979449;28;20101;-76
2022/02/21 05:43:49;;;;;;;3.17;0.60;;;4.50;99.90;;;;;;4981550;28;20387;-78
2022/02/21 05:46:16;;;;;;;2.97;0.70;;;4.40;99.90;;;;;;4980207;28;20559;-78
2022/02/21 05:48:46;;;;;;;4.50;0.85;;;4.40;99.90;;;;;;4979284;28;20473;-78
2022/02/21 05:51:13;;;;;;;2.30;0.60;;;4.50;99.90;;;;;;4979570;28;20082;-76
2022/02/21 05:53:45;;;;;;;3.55;0.98;;;4.50;99.90;;;;;;4980001;28;20147;-77
2022/02/21 05:56:15;;;;;;;3.15;0.80;;;4.50;99.90;;;;;;4979657;28;20106;-76
2022/02/21 05:58:47;;;;;;;2.90;1.02;;;4.50;99.90;;;;;;4979293;28;20137;-77
2022/02/21 06:01:14;;;;;;;4.38;0.95;;;4.50;99.90;;;;;;4978699;28;20110;-77
2022/02/21 06:03:42;;;;;;;3.97;1.02;;;4.50;99.90;;;;;;4978870;28;20057;-75
2022/02/21 06:06:12;;;;;;;4.43;0.80;;;4.60;99.90;;;;;;4979949;28;20054;-75
2022/02/21 06:08:41;;;;;;;6.25;1.17;;;4.60;99.90;;;;;;4980763;28;20114;-77
2022/02/21 06:11:08;;;;;;;4.25;1.15;;;4.60;99.90;;;;;;4977975;28;20050;-74
2022/02/21 06:13:37;;;;;;;6.95;1.38;;;4.60;99.90;;;;;;4978761;28;20137;-78
2022/02/21 06:16:05;;;;;;;4.18;0.98;;;4.70;99.90;;;;;;4978813;28;20142;-75
2022/02/21 06:18:35;;;;;;;3.05;0.88;;;4.70;99.90;;;;;;4979142;28;20098;-77
2022/02/21 06:21:03;;;;;;;6.35;1.13;;;4.80;99.90;;;;;;4977672;28;20078;-77
2022/02/21 06:23:30;;;;;;;4.75;1.00;;;4.80;99.90;;;;;;4978965;28;20138;-75
2022/02/21 06:25:57;;;;;;;4.18;1.10;;;4.80;99.90;;;;;;4978904;28;20145;-75
2022/02/21 06:28:24;;;;;;;6.80;1.20;;;4.80;99.90;;;;;;4979561;28;20412;-75
2022/02/21 06:30:53;;;;;;;3.67;1.00;;;4.80;99.90;;;;;;4978625;28;20137;-76
2022/02/21 06:33:20;;;;;;;5.63;1.25;;;4.90;99.90;;;;;;4978429;28;20139;-76
2022/02/21 06:35:47;;;;;;;7.45;1.02;;;4.90;99.90;;;;;;4978131;28;20074;-75
2022/02/21 06:38:15;;;;;;;4.88;1.27;;;4.90;99.90;;;;;;4976477;28;20050;-78
2022/02/21 06:40:42;;;;;;;5.15;0.90;;;4.80;99.90;;;;;;4978963;28;20466;-76
2022/02/21 06:43:09;;;;;;;6.95;1.20;;;5.00;99.90;;;;;;4978846;28;20078;-75
2022/02/21 06:45:37;;;;;;;4.80;1.30;;;5.00;99.90;;;;;;4977800;28;20086;-76
2022/02/21 06:48:06;;;;;;;5.53;0.98;;;5.00;99.90;;;;;;4977891;28;20093;-76
2022/02/21 06:50:34;;;;;;;5.55;1.00;;;5.00;99.90;;;;;;4978664;28;20111;-75
2022/02/21 06:53:01;;;;;;;7.57;1.63;;;4.90;99.90;;;;;;4978538;28;20571;-75
2022/02/21 06:55:28;;;;;;;6.07;1.00;;;5.00;99.90;;;;;;4978394;28;20138;-75
2022/02/21 06:57:56;;;;;;;5.50;1.10;;;5.00;99.90;;;;;;4977399;28;20586;-75
2022/02/21 07:00:23;;;;;;;5.43;1.00;;;5.00;99.90;;;;;;4976993;28;20101;-76
2022/02/21 07:02:51;;;;;;;6.85;1.20;;;4.90;99.90;;;;;;4977272;28;20057;-75
2022/02/21 07:05:20;;;;;;;4.93;1.42;;;5.00;99.90;;;;;;4977372;28;20488;-77
2022/02/21 07:07:47;;;;;;;3.45;1.00;;;5.00;99.90;;;;;;4977333;28;20093;-75
2022/02/21 07:10:14;;;;;;;4.80;1.25;;;5.10;99.90;;;;;;4975969;28;20081;-75
2022/02/21 07:12:41;;;;;;;4.38;0.93;;;5.00;99.90;;;;;;4976946;28;20062;-75
2022/02/21 07:15:10;;;;;;;4.70;1.35;;;5.00;99.90;;;;;;4976966;28;20407;-75
2022/02/21 07:17:38;;;;;;;6.57;1.50;;;5.00;99.90;;;;;;4977626;28;20168;-74
2022/02/21 07:20:12;;;;;;;7.32;1.73;;;5.00;99.90;;;;;;4979849;28;20053;-77
2022/02/21 07:22:44;;;;;;;6.20;1.45;;;5.00;99.90;;;;;;4984128;28;20048;-77
2022/02/21 07:25:13;;;;;;;11.00;1.98;;;5.10;99.90;;;;;;4979048;28;20085;-74
2022/02/21 07:27:45;;;;;;;7.72;1.52;;;5.10;99.90;;;;;;4980514;28;20110;-76
2022/02/21 07:30:15;;;;;;;8.30;1.38;;;5.10;99.90;;;;;;4978793;28;20126;-75
2022/02/21 07:32:43;;;;;;;6.03;1.27;;;5.10;99.90;;;;;;4979166;28;20106;-76
2022/02/21 07:35:11;;;;;;;6.75;1.10;;;5.10;99.90;;;;;;4976821;28;20057;-75
2022/02/21 07:37:39;;;;;;;8.25;1.77;;;5.20;99.90;;;;;;4976534;28;20101;-75
2022/02/21 07:40:10;;;;;;;7.82;1.50;;;5.30;99.90;;;;;;4977452;28;20042;-74
2022/02/21 07:42:42;;;;;;;7.15;1.40;;;5.20;99.90;;;;;;4977049;28;20090;-76
2022/02/21 07:45:10;;;;;;;8.02;1.60;;;5.30;99.90;;;;;;4977505;28;20404;-78
2022/02/21 07:47:44;;;;;;;8.52;1.75;;;5.20;99.90;;;;;;4976613;28;20512;-76
2022/02/21 07:50:12;;;;;;;8.57;1.65;;;5.30;99.90;;;;;;4975912;28;20054;-76
2022/02/21 07:52:41;;;;;;;9.23;1.90;;;5.30;99.90;;;;;;4974901;28;20055;-76
2022/02/21 07:55:11;;;;;;;7.03;1.50;;;5.40;99.90;;;;;;4977380;28;20054;-75
2022/02/21 07:57:40;;;;;;;8.95;1.70;;;5.40;99.60;;;;;;4980039;28;20043;-77
2022/02/21 08:00:11;;;;;;;11.95;1.73;;;5.30;99.20;;;;;;4977393;28;20057;-75
2022/02/21 08:02:42;;;;;;;9.27;1.77;;;5.30;99.00;;;;;;4978125;28;20075;-79
2022/02/21 08:05:10;;;;;;;10.52;2.05;;;5.40;98.60;;;;;;4977450;28;20047;-76
2022/02/21 08:07:39;;;;;;;9.57;1.70;;;5.50;98.70;;;;;;4976526;28;20050;-75
2022/02/21 08:10:07;;;;;;;8.77;1.90;;;5.50;97.30;;;;;;4977023;28;20074;-75
2022/02/21 08:12:35;;;;;;;9.15;1.55;;;5.60;97.30;;;;;;4978537;28;20441;-83
2022/02/21 08:15:03;;;;;;;10.65;2.03;;;5.50;97.40;;;;;;4983672;28;20138;-77
2022/02/21 08:17:39;;;;;;;10.05;2.08;;;5.60;97.20;;;;;;4979134;28;20085;-77
2022/02/21 08:20:07;;;;;;;9.70;2.45;;;5.60;97.40;;;;;;4976207;28;20050;-76
2022/02/21 08:22:36;;;;;;;9.10;1.77;;;5.70;97.60;;;;;;4976699;28;20467;-75
2022/02/21 08:25:03;;;;;;;8.57;2.00;;;5.60;97.40;;;;;;4976180;28;20129;-75
2022/02/21 08:27:31;;;;;;;10.77;1.80;;;5.80;97.20;;;;;;4975015;28;20452;-74
2022/02/21 08:29:59;;;;;;;12.18;1.90;;;5.70;97.10;;;;;;4975256;28;20130;-75
2022/02/21 08:32:26;;;;;;;11.90;1.73;;;5.80;97.30;;;;;;4974989;28;20141;-74
2022/02/21 08:34:53;;;;;;;7.85;1.73;;;5.80;97.00;;;;;;4974725;28;20574;-74
2022/02/21 08:37:20;;;;;;;9.25;1.60;;;5.90;97.00;;;;;;4975287;28;20074;-74
2022/02/21 08:39:47;;;;;;;11.77;2.08;;;6.00;96.60;;;;;;4974664;28;20057;-75
2022/02/21 08:42:14;;;;;;;9.48;1.95;;;5.90;96.70;;;;;;4974833;28;20053;-76
2022/02/21 08:44:41;;;;;;;7.03;1.80;;;5.90;96.50;;;;;;4975025;28;20411;-74
2022/02/21 08:47:10;;;;;;;7.35;1.50;;;6.00;96.60;;;;;;4975214;28;20077;-76
2022/02/21 08:49:37;;;;;;;10.70;2.30;;;6.00;96.00;;;;;;4974725;28;20129;-74
2022/02/21 08:52:05;;;;;;;7.72;1.90;;;6.10;96.40;;;;;;4974923;28;20058;-75
2022/02/21 08:54:35;;;;;;;11.50;1.85;;;6.10;95.90;;;;;;4974624;28;20141;-75
2022/02/21 08:57:03;;;;;;;9.75;1.92;;;6.20;96.50;;;;;;4974648;28;20391;-75
2022/02/21 08:59:30;;;;;;;9.25;1.70;;;6.30;95.40;;;;;;4975020;28;20126;-77
2022/02/21 09:01:57;;;;;;;11.43;1.67;;;6.30;95.40;;;;;;4974661;28;20046;-76
2022/02/21 09:04:26;;;;;;;7.53;1.90;;;6.30;94.80;;;;;;4974531;28;20470;-75
2022/02/21 09:06:53;;;;;;;9.05;1.50;;;6.40;95.00;;;;;;4975259;28;20046;-75
2022/02/21 09:09:22;;;;;;;10.57;1.67;;;6.40;94.80;;;;;;4974927;28;20463;-75
2022/02/21 09:11:50;;;;;;;10.85;2.08;;;6.30;95.00;;;;;;4974981;28;20043;-74
2022/02/21 09:14:19;;;;;;;11.38;2.03;;;6.40;95.10;;;;;;4978685;28;20047;-74
2022/02/21 09:16:47;;;;;;;9.30;1.70;;;6.30;94.90;;;;;;4978692;28;20576;-74
2022/02/21 09:19:14;;;;;;;12.23;1.95;;;6.30;95.40;;;;;;4978373;28;20056;-76
2022/02/21 09:21:43;;;;;;;9.05;1.95;;;6.30;95.20;;;;;;4979392;28;20070;-76
2022/02/21 09:24:10;;;;;;;9.40;1.80;;;6.30;95.50;;;;;;4978624;28;20143;-76
2022/02/21 09:26:37;;;;;;;13.43;2.38;;;6.30;95.70;;;;;;4978494;28;20137;-77
2022/02/21 09:29:04;;;;;;;7.78;1.50;;;6.40;95.70;;;;;;4977758;28;20053;-75
2022/02/21 09:31:32;;;;;;;10.48;2.40;;;6.40;95.60;;;;;;4977782;28;20137;-75
2022/02/21 09:33:59;;;;;;;14.88;1.90;;;6.50;95.90;;;;;;4978163;28;20058;-74
2022/02/21 09:36:26;;;;;;;12.65;1.70;;;6.50;95.60;;;;;;4977709;28;20082;-75
2022/02/21 09:38:54;;;;;;;10.77;1.95;;;6.50;95.50;;;;;;4977546;28;20049;-75
2022/02/21 09:41:21;;;;;;;14.07;2.00;;;6.50;95.50;;;;;;4977948;28;20137;-76
2022/02/21 09:43:49;;;;;;;12.35;2.33;;;6.60;95.00;;;;;;4977753;28;20061;-75
2022/02/21 09:46:16;;;;;;;10.80;1.88;;;6.50;94.80;;;;;;4979378;28;20563;-76
2022/02/21 09:48:44;;;;;;;11.05;1.90;;;6.60;94.10;;;;;;4977802;28;20507;-75
2022/02/21 09:51:11;;;;;;;9.05;1.70;;;6.60;94.50;;;;;;4977374;28;20043;-75
2022/02/21 09:53:39;;;;;;;10.02;1.65;;;6.70;94.10;;;;;;4977555;28;20090;-76
2022/02/21 09:56:09;;;;;;;9.45;2.17;;;6.60;93.10;;;;;;4977202;28;20057;-76
2022/02/21 09:58:36;;;;;;;12.93;2.42;;;6.70;93.60;;;;;;4977432;28;20141;-74
2022/02/21 10:01:04;;;;;;;10.50;2.25;;;6.70;93.70;;;;;;4975670;28;20053;-76
2022/02/21 10:03:45;;;;;;;10.75;1.80;;;6.70;94.00;;;;;;4976131;28;20093;-75
2022/02/21 10:06:17;;;;;;;16.92;2.40;;;6.60;94.20;;;;;;4977009;28;20062;-74
2022/02/21 10:08:54;;;;;;;9.77;2.00;;;6.80;94.50;;;;;;4978845;28;20074;-75
2022/02/21 10:11:29;;;;;;;11.05;1.70;;;6.60;95.00;;;;;;4980790;28;20134;-74
2022/02/21 10:13:58;;;;;;;10.00;2.17;;;6.60;94.60;;;;;;4977637;28;20055;-75
2022/02/21 10:16:28;;;;;;;9.00;2.40;;;6.60;95.20;;;;;;4966384;28;20054;-75
2022/02/21 10:19:14;;;;;;;10.32;2.55;;;6.60;95.50;;;;;;4958162;29;20141;-76
2022/02/21 10:21:59;;;;;;;12.85;2.35;;;6.50;95.30;;;;;;4972361;28;20487;-76
2022/02/21 10:24:27;;;;;;;;;;;6.60;95.20;;;;;;4976239;28;20503;-76
2022/02/21 10:26:59;;;;;;;11.10;2.10;;;6.70;95.30;;;;;;4976957;28;20021;-76
2022/02/21 10:29:27;;;;;;;11.30;2.22;;;6.60;95.00;;;;;;4976674;28;20133;-75
2022/02/21 10:32:09;;;;;;;7.18;1.95;;;6.60;95.20;;;;;;4975963;28;20053;-75
2022/02/21 10:34:38;;;;;;;7.93;1.80;;;6.70;94.10;;;;;;4976615;28;20404;-74
2022/02/21 10:37:07;;;;;;;12.68;2.20;;;6.80;94.30;;;;;;4976430;28;20512;-76
2022/02/21 10:39:35;;;;;;;9.88;2.05;;;6.90;94.10;;;;;;4963487;28;20160;-75
2022/02/21 10:42:07;;;;;;;8.48;1.58;;;7.00;93.70;;;;;;4954519;28;20412;-77
2022/02/21 10:44:36;;;;;;;8.60;1.83;;;6.90;93.00;;;;;;4954594;29;20141;-76
2022/02/21 10:47:11;;;;;;;13.07;2.13;;;7.10;92.50;;;;;;4971987;28;20399;-74
2022/02/21 10:49:45;;;;;;;8.10;1.50;;;7.00;91.70;;;;;;4973251;28;20054;-74
2022/02/21 10:52:16;;;;;;;8.73;1.77;;;7.20;90.90;;;;;;4973797;28;20146;-75
2022/02/21 10:54:43;;;;;;;9.10;1.60;;;7.30;89.00;;;;;;4974023;28;20622;-74
2022/02/21 10:57:15;;;;;;;7.10;1.50;;;7.20;88.30;;;;;;4971951;28;20130;-74
2022/02/21 10:59:42;;;;;;;9.13;1.70;;;7.30;90.00;;;;;;4972390;28;20659;-76
2022/02/21 11:02:14;;;;;;;10.30;1.90;;;7.40;90.20;;;;;;4972392;28;20047;-76
2022/02/21 11:04:44;;;;;;;9.10;2.00;;;7.30;90.10;;;;;;4972935;28;20055;-76
2022/02/21 11:07:12;;;;;;;6.47;1.50;;;7.50;90.30;;;;;;4973281;28;20059;-74
2022/02/21 11:09:40;;;;;;;8.85;1.63;;;7.50;90.30;;;;;;4973201;28;20051;-74
2022/02/21 11:12:10;;;;;;;5.95;1.35;;;7.50;88.70;;;;;;4973537;28;20133;-76
2022/02/21 11:14:40;;;;;;;9.07;1.67;;;7.60;90.50;;;;;;4972498;28;20069;-76
2022/02/21 11:17:10;;;;;;;10.68;1.50;;;7.70;87.70;;;;;;4974198;28;20050;-75
2022/02/21 11:19:39;;;;;;;5.40;1.38;;;7.70;87.50;;;;;;4974700;28;20062;-74
2022/02/21 11:22:07;;;;;;;9.40;1.75;;;7.80;87.20;;;;;;4974674;28;20133;-75
2022/02/21 11:24:37;;;;;;;7.43;1.38;;;7.70;88.00;;;;;;4974813;28;20051;-75
2022/02/21 11:27:25;;;;;;;6.88;1.48;;;7.80;90.20;;;;;;4975569;28;20106;-75
2022/02/21 11:30:05;;;;;;;9.52;1.88;;;7.90;91.60;;;;;;4967806;28;20488;-75
2022/02/21 11:32:33;;;;;;;5.03;1.25;;;7.90;91.80;;;;;;4980876;28;20097;-75
2022/02/21 11:35:16;;;;;;;5.65;1.10;;;7.90;91.90;;;;;;4978931;28;20074;-77
2022/02/21 11:37:44;;;;;;;5.70;1.20;;;8.00;92.10;;;;;;4978022;28;20050;-79
2022/02/21 11:40:12;;;;;;;6.40;1.60;;;8.00;90.90;;;;;;4977628;28;20081;-76
2022/02/21 11:42:40;;;;;;;5.80;1.33;;;8.10;90.40;;;;;;4974972;28;20134;-80
2022/02/21 11:45:24;;;;;;;8.48;1.58;;;8.10;90.30;;;;;;4973196;28;20054;-77
2022/02/21 11:47:53;;;;;;;8.30;1.40;;;8.10;89.00;;;;;;4972357;28;20055;-78
2022/02/21 11:50:28;;;;;;;6.35;1.40;;;8.10;89.70;;;;;;4972007;28;20051;-77
2022/02/21 11:52:57;;;;;;;7.13;1.33;;;8.20;89.30;;;;;;4972613;28;20082;-80
2022/02/21 11:55:38;;;;;;;8.82;2.08;;;8.20;87.80;;;;;;4971909;28;20129;-79
2022/02/21 11:58:43;;;;;;;7.97;2.67;;;8.10;87.00;;;;;;4970279;28;20520;-78
2022/02/21 12:01:19;;;;;;;7.50;1.73;;;8.10;84.90;;;;;;4972267;28;20101;-77
2022/02/21 12:04:15;;;;;;;7.78;1.85;;;8.00;84.80;;;;;;4971888;28;20046;-76
2022/02/21 12:06:56;;;;;;;7.60;1.30;;;7.90;85.90;;;;;;4972567;28;20047;-77
2022/02/21 12:09:24;;;;;;;7.45;1.63;;;8.00;84.70;;;;;;4971989;28;20146;-75
2022/02/21 12:11:51;;;;;;;6.97;1.63;;;8.10;81.30;;;;;;4971539;28;20610;-77
2022/02/21 12:14:23;;;;;;;7.10;1.50;;;8.00;82.70;;;;;;4971534;28;20526;-79
2022/02/21 12:17:07;;;;;;;7.65;1.80;;;8.20;82.70;;;;;;4971761;28;20086;-78
2022/02/21 12:19:40;;;;;;;7.07;1.20;;;8.30;82.00;;;;;;4952787;29;20058;-78
2022/02/21 12:22:13;;;;;;;5.40;1.40;;;8.40;80.00;;;;;;4952771;29;20463;-76
2022/02/21 12:25:13;;;;;;;6.38;1.42;;;8.30;74.60;;;;;;4952898;29;20061;-78
2022/02/21 12:28:17;;;;;;;6.90;1.65;;;8.30;74.80;;;;;;4953160;29;20129;-77
2022/02/21 12:30:47;;;;;;;5.18;1.10;;;8.40;74.30;;;;;;4973633;28;20086;-79
2022/02/21 12:33:25;;;;;;;6.85;1.80;;;8.40;73.20;;;;;;4981134;28;20472;-78
2022/02/21 12:35:57;;;;;;;6.32;1.38;;;8.50;72.30;;;;;;4972469;28;20058;-79
2022/02/21 12:38:26;;;;;;;5.70;1.25;;;8.50;72.70;;;;;;4971508;28;20101;-78
2022/02/21 12:41:02;;;;;;;5.22;1.30;;;8.40;73.40;;;;;;4972048;28;20111;-78
2022/02/21 12:43:47;;;;;;;7.40;1.20;;;8.40;73.40;;;;;;4971805;28;20059;-79
2022/02/21 12:46:14;;;;;;;5.72;1.40;;;8.30;73.60;;;;;;4971989;28;20519;-81
2022/02/21 12:48:44;;;;;;;5.18;1.20;;;8.30;73.60;;;;;;4975831;28;20154;-79
2022/02/21 12:51:23;;;;;;;4.47;1.10;;;8.20;72.60;;;;;;4975615;28;20054;-78
2022/02/21 12:53:53;;;;;;;6.68;1.20;;;8.10;73.60;;;;;;4975660;28;20051;-76
2022/02/21 12:56:20;;;;;;;5.60;1.25;;;8.10;73.40;;;;;;4973687;28;20187;-79
2022/02/21 12:58:51;;;;;;;5.75;1.27;;;8.00;74.40;;;;;;4975192;28;20523;-76
2022/02/21 13:01:21;;;;;;;6.38;1.20;;;7.90;74.90;;;;;;4975581;28;20051;-77
2022/02/21 13:03:57;;;;;;;7.45;1.38;;;7.90;75.20;;;;;;4975677;28;20142;-77
2022/02/21 13:06:27;;;;;;;6.50;1.27;;;7.80;76.10;;;;;;4975114;28;20093;-77
2022/02/21 13:08:54;;;;;;;6.47;1.85;;;7.80;77.20;;;;;;4975423;28;20130;-79
2022/02/21 13:11:30;;;;;;;7.43;1.10;;;7.80;78.50;;;;;;4975606;28;20149;-77
2022/02/21 13:14:00;;;;;;;7.25;1.42;;;7.70;81.10;;;;;;4975067;28;20129;-77
2022/02/21 13:16:32;;;;;;;7.13;1.38;;;7.70;82.00;;;;;;4974725;28;20055;-76
2022/02/21 13:19:02;;;;;;;7.40;1.90;;;7.70;84.00;;;;;;4974852;28;20154;-76
2022/02/21 13:21:38;;;;;;;6.55;1.65;;;7.50;85.60;;;;;;4974964;28;20102;-77
2022/02/21 13:24:09;;;;;;;7.43;1.40;;;7.60;86.10;;;;;;4975055;28;20050;-76
2022/02/21 13:26:48;;;;;;;8.20;1.70;;;7.70;87.10;;;;;;4974497;28;20480;-79
2022/02/21 13:29:24;;;;;;;6.82;1.65;;;7.80;87.10;;;;;;4974711;28;20496;-77
2022/02/21 13:31:51;;;;;;;6.55;1.73;;;7.90;87.50;;;;;;4974836;28;20047;-77
2022/02/21 13:34:40;;;;;;;5.25;1.50;;;8.10;87.30;;;;;;4974649;28;20075;-77
2022/02/21 13:37:13;;;;;;;5.78;1.40;;;8.20;87.00;;;;;;4974533;28;20130;-78
2022/02/21 13:39:43;;;;;;;10.02;1.65;;;8.20;86.70;;;;;;4974343;28;20117;-79
2022/02/21 13:42:32;;;;;;;8.18;1.77;;;8.20;86.60;;;;;;4974698;28;20084;-79
2022/02/21 13:45:25;;;;;;;5.38;1.30;;;8.20;86.60;;;;;;4974351;28;20051;-77
2022/02/21 13:48:06;;;;;;;6.60;1.27;;;8.10;85.90;;;;;;4974330;28;21533;-76
2022/02/21 13:50:45;;;;;;;5.05;1.10;;;8.10;85.70;;;;;;4974084;28;20121;-75
2022/02/21 13:53:17;;;;;;;6.07;1.40;;;8.10;86.50;;;;;;4974621;28;20445;-78
2022/02/21 13:55:55;;;;;;;5.63;1.17;;;8.10;86.60;;;;;;4974469;28;20086;-76
2022/02/21 13:58:30;;;;;;;5.88;1.17;;;8.10;84.10;;;;;;4971747;28;20058;-75
2022/02/21 14:01:08;;;;;;;6.18;1.40;;;8.10;84.70;;;;;;4964689;28;20133;-76
2022/02/21 14:03:43;;;;;;;7.18;1.40;;;8.00;84.80;;;;;;4954740;29;20093;-77
2022/02/21 14:06:13;;;;;;;4.22;1.25;;;8.00;84.10;;;;;;4954819;29;20062;-76
2022/02/21 14:08:44;;;;;;;8.20;1.30;;;7.90;85.30;;;;;;4954908;29;20488;-79
2022/02/21 14:11:13;;;;;;;6.80;1.25;;;7.90;84.20;;;;;;4954720;29;20134;-75
2022/02/21 14:13:41;;;;;;;5.70;1.10;;;7.90;83.50;;;;;;4954919;29;20051;-75
2022/02/21 14:16:10;;;;;;;6.72;1.20;;;7.90;83.80;;;;;;4954495;29;20051;-78
2022/02/21 14:18:40;;;;;;;6.38;1.88;;;7.80;84.60;;;;;;4954427;29;20146;-79
2022/02/21 14:21:09;;;;;;;3.45;0.95;;;7.80;85.30;;;;;;4969201;28;20089;-80
2022/02/21 14:23:37;;;;;;;5.47;0.90;;;7.80;83.90;;;;;;4973195;28;20046;-79
2022/02/21 14:26:05;;;;;;;6.82;1.00;;;7.80;84.10;;;;;;4974087;28;20476;-82
2022/02/21 14:28:33;;;;;;;3.20;0.90;;;7.80;84.50;;;;;;4973673;28;20059;-77
2022/02/21 14:31:00;;;;;;;4.82;1.02;;;7.70;84.50;;;;;;4973894;28;20522;-77
2022/02/21 14:33:28;;;;;;;5.88;0.90;;;7.70;85.00;;;;;;4974743;28;20130;-76
2022/02/21 14:35:55;;;;;;;7.82;1.33;;;7.70;85.50;;;;;;4975149;28;20061;-79
2022/02/21 14:38:24;;;;;;;4.50;1.17;;;7.60;86.00;;;;;;4973609;28;20145;-75
2022/02/21 14:40:54;;;;;;;4.60;1.10;;;7.60;87.00;;;;;;4974273;28;20138;-79
2022/02/21 14:43:22;;;;;;;6.30;1.00;;;7.50;88.10;;;;;;4973435;28;20484;-78
2022/02/21 14:45:51;;;;;;;6.28;1.35;;;7.50;89.70;;;;;;4973853;28;20086;-77
2022/02/21 14:48:19;;;;;;;5.95;1.33;;;7.60;90.20;;;;;;4974794;28;20459;-79
2022/02/21 14:50:46;;;;;;;5.28;1.20;;;7.50;90.30;;;;;;4974986;28;20051;-79
2022/02/21 14:53:14;;;;;;;6.05;1.30;;;7.40;90.60;;;;;;4979214;28;20141;-77
2022/02/21 14:55:44;;;;;;;7.03;1.33;;;7.40;90.90;;;;;;4982369;28;20093;-77
2022/02/21 14:58:13;;;;;;;5.53;1.30;;;7.40;91.30;;;;;;4983060;28;20089;-75
2022/02/21 15:00:41;;;;;;;6.47;1.38;;;7.40;91.90;;;;;;4977713;28;20129;-77
2022/02/21 15:03:09;;;;;;;5.75;1.10;;;7.40;92.10;;;;;;4973162;28;20047;-78
2022/02/21 15:05:37;;;;;;;4.63;1.15;;;7.30;92.60;;;;;;4973322;28;20183;-78
2022/02/21 15:08:05;;;;;;;4.75;1.27;;;7.40;92.60;;;;;;4973322;28;20061;-79
2022/02/21 15:10:32;;;;;;;4.88;1.27;;;7.40;92.90;;;;;;4972597;28;20130;-79
2022/02/21 15:13:00;;;;;;;4.75;1.17;;;7.30;92.90;;;;;;4972709;28;20069;-79
2022/02/21 15:15:28;;;;;;;4.15;1.27;;;7.30;93.10;;;;;;4973409;28;20146;-79
2022/02/21 15:17:55;;;;;;;4.00;1.20;;;7.20;93.20;;;;;;4980948;28;20459;-81
2022/02/21 15:20:23;;;;;;;6.13;1.38;;;7.30;93.50;;;;;;4980287;28;20051;-81
2022/02/21 15:22:50;;;;;;;6.28;1.20;;;7.30;94.10;;;;;;4981231;28;20058;-82
2022/02/21 15:25:18;;;;;;;5.78;2.00;;;7.20;94.40;;;;;;4977483;28;20134;-77
2022/02/21 15:27:45;;;;;;;6.10;1.80;;;7.10;95.30;;;;;;4979412;28;20051;-78
2022/02/21 15:30:14;;;;;;;5.38;1.10;;;7.00;95.70;;;;;;4977510;28;20137;-77
2022/02/21 15:32:42;;;;;;;4.47;1.27;;;7.00;96.10;;;;;;4977227;28;20129;-78
2022/02/21 15:35:10;;;;;;;3.17;1.02;;;6.90;96.00;;;;;;4978549;28;20111;-79
2022/02/21 15:37:38;;;;;;;9.43;1.50;;;6.80;96.10;;;;;;4973063;28;20059;-80
2022/02/21 15:40:09;;;;;;;3.88;1.00;;;6.90;96.50;;;;;;4973041;28;20047;-80
2022/02/21 15:42:38;;;;;;;8.23;1.38;;;6.80;96.20;;;;;;4972442;28;20122;-77
2022/02/21 15:45:07;;;;;;;5.20;1.50;;;6.90;96.30;;;;;;4972020;28;20065;-81
2022/02/21 15:47:35;;;;;;;5.10;1.23;;;6.90;96.20;;;;;;4972168;28;20141;-79
2022/02/21 15:50:06;;;;;;;5.47;1.63;;;6.90;96.00;;;;;;4974297;28;20050;-80
2022/02/21 15:52:33;;;;;;;6.80;1.45;;;6.90;96.00;;;;;;4977281;28;20043;-80
2022/02/21 15:55:00;;;;;;;8.90;1.30;;;6.90;95.50;;;;;;4975246;28;20148;-78
2022/02/21 15:57:27;;;;;;;4.78;1.20;;;6.90;95.50;;;;;;4963511;28;20134;-79
2022/02/21 15:59:54;;;;;;;5.07;1.30;;;6.90;95.80;;;;;;4963811;28;20133;-77
2022/02/21 16:02:21;;;;;;;6.53;1.48;;;6.90;96.00;;;;;;4972411;28;20049;-77
2022/02/21 16:04:48;;;;;;;5.65;1.25;;;6.90;96.30;;;;;;4972906;28;20084;-80
2022/02/21 16:07:16;;;;;;;5.88;1.58;;;6.80;97.10;;;;;;4972304;28;20061;-77
2022/02/21 16:09:45;;;;;;;5.07;1.25;;;6.70;97.50;;;;;;4971719;28;20049;-78
2022/02/21 16:12:12;;;;;;;4.18;1.10;;;6.70;97.80;;;;;;4973019;28;20039;-82
2022/02/21 16:14:39;;;;;;;6.13;1.30;;;6.60;97.90;;;;;;4972659;28;20086;-81
2022/02/21 16:17:06;;;;;;;5.30;1.70;;;6.60;98.40;;;;;;4972503;28;20053;-80
2022/02/21 16:19:33;;;;;;;4.97;1.17;;;6.50;98.70;;;;;;4971911;28;20563;-82
2022/02/21 16:22:00;;;;;;;4.35;1.00;;;6.60;98.90;;;;;;4973365;28;20053;-78
2022/02/21 16:24:29;;;;;;;6.18;1.30;;;6.60;98.90;;;;;;4975561;28;20043;-84
2022/02/21 16:26:56;;;;;;;4.90;1.20;;;6.50;99.40;;;;;;4974328;28;20046;-79
2022/02/21 16:29:24;;;;;;;5.60;1.10;;;6.50;99.80;;;;;;4975750;28;20050;-80
2022/02/21 16:31:53;;;;;;;4.70;0.95;;;6.50;99.90;;;;;;4976122;28;20330;-79
2022/02/21 16:34:20;;;;;;;6.30;1.38;;;6.40;99.90;;;;;;4975006;28;20051;-78
2022/02/21 16:36:49;;;;;;;5.35;1.17;;;6.30;99.90;;;;;;4975784;28;20051;-81
2022/02/21 16:39:16;;;;;;;4.35;1.10;;;6.20;99.90;;;;;;4976047;28;20061;-77
2022/02/21 16:41:46;;;;;;;4.43;1.17;;;6.10;99.90;;;;;;4976225;28;20050;-78
2022/02/21 16:44:13;;;;;;;3.60;1.05;;;6.10;99.90;;;;;;4976532;28;20115;-79
2022/02/21 16:46:40;;;;;;;4.68;1.10;;;6.00;99.90;;;;;;4975622;28;20051;-81
2022/02/21 16:49:09;;;;;;;5.47;1.42;;;5.90;99.90;;;;;;4976456;28;20051;-79
2022/02/21 16:51:36;;;;;;;5.80;1.00;;;5.90;99.90;;;;;;4974933;28;20085;-79
2022/02/21 16:54:06;;;;;;;3.20;1.20;;;5.90;99.90;;;;;;4975175;28;20125;-79
2022/02/21 16:56:34;;;;;;;3.78;1.13;;;5.80;99.90;;;;;;4974060;28;20065;-80
2022/02/21 16:59:03;;;;;;;3.35;0.90;;;5.90;99.90;;;;;;4968431;28;20058;-80
2022/02/21 17:01:30;;;;;;;4.43;1.05;;;5.70;99.90;;;;;;4975244;28;20089;-77
2022/02/21 17:03:57;;;;;;;3.67;0.70;;;5.70;99.90;;;;;;4976931;28;20078;-79
2022/02/21 17:06:25;;;;;;;5.65;1.00;;;5.80;99.90;;;;;;4976785;28;20046;-80
2022/02/21 17:08:52;;;;;;;5.03;0.90;;;5.70;99.90;;;;;;4975010;28;20105;-78
2022/02/21 17:11:19;;;;;;;4.13;1.10;;;5.70;99.90;;;;;;4975270;28;20046;-77
2022/02/21 17:13:47;;;;;;;6.32;1.10;;;5.70;99.90;;;;;;4975639;28;20627;-79
2022/02/21 17:16:15;;;;;;;3.97;1.10;;;5.70;99.90;;;;;;4970136;28;20057;-79
2022/02/21 17:18:42;;;;;;;3.63;0.90;;;5.80;99.90;;;;;;4962827;28;20134;-79
2022/02/21 17:21:11;;;;;;;4.75;1.13;;;5.70;99.90;;;;;;4976233;28;20161;-78
2022/02/21 17:23:38;;;;;;;4.35;1.02;;;5.70;99.90;;;;;;4970032;28;20048;-79
2022/02/21 17:26:06;;;;;;;2.83;0.90;;;5.70;99.90;;;;;;4975293;28;20082;-80
2022/02/21 17:28:33;;;;;;;4.28;0.90;;;5.60;99.90;;;;;;4974549;28;20049;-77
2022/02/21 17:31:01;;;;;;;5.03;1.08;;;5.60;99.90;;;;;;4975341;28;20042;-76
2022/02/21 17:33:29;;;;;;;3.00;0.88;;;5.60;99.90;;;;;;4974517;28;20081;-78
2022/02/21 17:35:58;;;;;;;3.75;0.90;;;5.50;99.90;;;;;;4984812;28;20054;-77
2022/02/21 17:38:25;;;;;;;4.85;1.00;;;5.50;99.90;;;;;;4975321;28;20508;-78
2022/02/21 17:40:53;;;;;;;4.35;1.00;;;5.50;99.90;;;;;;4974627;28;20050;-81
2022/02/21 17:43:20;;;;;;;3.20;1.00;;;5.50;99.90;;;;;;4972567;28;20138;-79
2022/02/21 17:45:47;;;;;;;4.47;1.20;;;5.30;99.90;;;;;;4974605;28;20483;-81
2022/02/21 17:48:14;;;;;;;4.25;0.90;;;5.40;99.90;;;;;;4973920;28;20054;-80
2022/02/21 17:50:44;;;;;;;4.05;1.00;;;5.40;99.90;;;;;;4973524;28;20141;-78
2022/02/21 17:53:11;;;;;;;4.88;1.13;;;5.30;99.90;;;;;;4968680;28;20047;-81
2022/02/21 17:55:38;;;;;;;4.75;1.27;;;5.30;99.90;;;;;;4973485;28;20051;-80